Time;durP1;ratioP1;P1;durP2;ratioP2;P2;SDS_P1;SDS_P2;PMS_P1;PMS_P2;Temp;Humidity;BMP_temperature;BMP_pressure;BME280_temperature;BME280_humidity;BME280_pressure;Samples;Min_cycle;Max_cycle;Signal;HPM_P1;HPM_P2
2023/03/25 00:00:56;;;;;;;6.87;1.50;;;;;;;;;;5054157;28;20031;-70
2023/03/25 00:03:25;;;;;;;13.20;1.88;;;;;;;;;;5053738;28;20021;-70
2023/03/25 00:05:52;;;;;;;11.60;2.60;;;;;;;;;;5054001;28;20041;-70
2023/03/25 00:08:18;;;;;;;7.47;1.70;;;;;;;;;;5053852;28;20023;-70
2023/03/25 00:10:44;;;;;;;11.50;1.90;;;;;;;;;;5054062;28;20028;-70
2023/03/25 00:13:12;;;;;;;11.27;2.28;;;;;;;;;;5053254;28;20039;-70
2023/03/25 00:15:45;;;;;;;10.07;2.63;;;;;;;;;;5053546;28;20382;-70
2023/03/25 00:18:11;;;;;;;11.20;2.30;;;;;;;;;;5053503;28;20035;-70
2023/03/25 00:20:41;;;;;;;10.73;2.50;;;;;;;;;;5053909;28;20029;-70
2023/03/25 00:23:07;;;;;;;6.72;1.80;;;;;;;;;;5053525;28;20435;-70
2023/03/25 00:25:34;;;;;;;14.02;2.38;;;;;;;;;;5053593;28;20013;-70
2023/03/25 00:28:00;;;;;;;10.52;2.42;;;;;;;;;;5053523;28;20045;-70
2023/03/25 00:30:27;;;;;;;14.00;2.75;;;;;;;;;;5053567;28;20436;-70
2023/03/25 00:32:53;;;;;;;11.00;2.05;;;;;;;;;;5053179;28;20028;-70
2023/03/25 00:35:19;;;;;;;17.33;4.32;;;;;;;;;;5053504;28;20035;-70
2023/03/25 00:37:46;;;;;;;33.35;11.95;;;;;;;;;;5053241;28;20027;-70
2023/03/25 00:40:13;;;;;;;11.85;2.60;;;;;;;;;;5053205;28;20499;-70
2023/03/25 00:42:43;;;;;;;8.32;2.10;;;;;;;;;;5053133;28;20025;-70
2023/03/25 00:45:12;;;;;;;12.55;3.17;;;;;;;;;;5053041;28;20416;-70
2023/03/25 00:47:40;;;;;;;8.32;2.08;;;;;;;;;;5052887;28;20482;-70
2023/03/25 00:50:06;;;;;;;90.60;36.45;;;;;;;;;;5053152;28;20041;-69
2023/03/25 00:52:33;;;;;;;87.85;32.80;;;;;;;;;;5052967;28;20029;-70
2023/03/25 00:55:00;;;;;;;127.80;43.78;;;;;;;;;;5052953;28;20029;-70
2023/03/25 00:57:27;;;;;;;69.57;26.80;;;;;;;;;;5053172;28;20017;-70
2023/03/25 00:59:53;;;;;;;182.73;70.35;;;;;;;;;;5052537;28;20029;-70
2023/03/25 01:02:20;;;;;;;31.48;11.23;;;;;;;;;;5052891;28;20032;-70
2023/03/25 01:04:48;;;;;;;16.85;4.18;;;;;;;;;;5052680;28;20036;-70
2023/03/25 01:07:15;;;;;;;15.93;7.50;;;;;;;;;;5052982;28;20032;-70
2023/03/25 01:09:44;;;;;;;10.90;2.75;;;;;;;;;;5052985;28;20020;-70
2023/03/25 01:12:10;;;;;;;9.23;3.10;;;;;;;;;;5052662;28;20032;-70
2023/03/25 01:14:36;;;;;;;14.80;4.35;;;;;;;;;;5052640;28;20017;-70
2023/03/25 01:17:03;;;;;;;12.00;2.72;;;;;;;;;;5052698;28;20035;-70
2023/03/25 01:19:29;;;;;;;8.20;1.77;;;;;;;;;;5052578;28;20025;-70
2023/03/25 01:21:55;;;;;;;9.23;2.20;;;;;;;;;;5052527;28;20023;-70
2023/03/25 01:24:22;;;;;;;13.13;2.45;;;;;;;;;;5051385;28;20045;-70
2023/03/25 01:26:48;;;;;;;10.57;2.47;;;;;;;;;;5052494;28;20396;-70
2023/03/25 01:29:16;;;;;;;12.68;2.40;;;;;;;;;;5052100;28;20521;-70
2023/03/25 01:31:42;;;;;;;7.57;2.20;;;;;;;;;;5052596;28;20036;-70
2023/03/25 01:34:09;;;;;;;12.10;3.40;;;;;;;;;;5052318;28;20017;-70
2023/03/25 01:36:36;;;;;;;11.10;2.53;;;;;;;;;;5052299;28;20031;-70
2023/03/25 01:39:04;;;;;;;10.45;2.03;;;;;;;;;;5052442;28;20027;-69
2023/03/25 01:41:31;;;;;;;15.05;2.63;;;;;;;;;;5052207;28;20027;-70
2023/03/25 01:44:28;;;;;;;10.57;1.98;;;;;;;;;;5051914;28;20035;-69
2023/03/25 01:46:55;;;;;;;9.07;2.33;;;;;;;;;;5052305;28;20025;-70
2023/03/25 01:49:23;;;;;;;12.35;2.95;;;;;;;;;;5052213;28;20070;-70
2023/03/25 01:51:55;;;;;;;18.30;5.57;;;;;;;;;;5052092;28;20025;-70
2023/03/25 01:54:21;;;;;;;8.25;2.05;;;;;;;;;;5052049;28;20057;-70
2023/03/25 01:56:48;;;;;;;14.25;3.22;;;;;;;;;;5051996;28;20032;-70
2023/03/25 01:59:17;;;;;;;12.45;2.72;;;;;;;;;;5051611;28;20021;-70
2023/03/25 02:01:45;;;;;;;12.43;2.47;;;;;;;;;;5051874;28;20029;-70
2023/03/25 02:04:12;;;;;;;10.15;2.00;;;;;;;;;;5051846;28;20037;-70
2023/03/25 02:06:43;;;;;;;7.60;1.88;;;;;;;;;;5052158;28;20074;-70
2023/03/25 02:09:11;;;;;;;11.55;2.10;;;;;;;;;;5051785;28;20043;-70
2023/03/25 02:11:38;;;;;;;10.27;2.10;;;;;;;;;;5052085;28;20185;-70
2023/03/25 02:14:09;;;;;;;7.47;2.35;;;;;;;;;;5051762;28;20024;-70
2023/03/25 02:16:48;;;;;;;9.13;2.20;;;;;;;;;;5051786;28;20027;-70
2023/03/25 02:19:32;;;;;;;12.40;2.13;;;;;;;;;;5051795;28;20029;-70
2023/03/25 02:22:13;;;;;;;17.52;2.30;;;;;;;;;;5050586;28;20503;-70
2023/03/25 02:24:52;;;;;;;11.45;2.15;;;;;;;;;;5051742;28;20072;-70
2023/03/25 02:27:32;;;;;;;8.52;1.90;;;;;;;;;;5051259;28;20021;-70
2023/03/25 02:30:13;;;;;;;9.15;1.85;;;;;;;;;;5051827;28;20037;-70
2023/03/25 02:33:02;;;;;;;9.98;1.98;;;;;;;;;;5051732;28;20029;-70
2023/03/25 02:35:28;;;;;;;10.00;2.25;;;;;;;;;;5052849;28;20099;-70
2023/03/25 02:37:57;;;;;;;12.85;2.70;;;;;;;;;;5055907;28;20021;-70
2023/03/25 02:40:47;;;;;;;9.82;1.70;;;;;;;;;;5055457;28;20029;-70
2023/03/25 02:43:18;;;;;;;9.20;2.30;;;;;;;;;;5032998;28;20525;-70
2023/03/25 02:45:46;;;;;;;12.02;2.05;;;;;;;;;;5033063;28;20037;-70
2023/03/25 02:48:19;;;;;;;16.02;2.30;;;;;;;;;;5033484;28;20041;-70
2023/03/25 02:50:48;;;;;;;10.57;2.08;;;;;;;;;;5033160;28;20118;-70
2023/03/25 02:53:18;;;;;;;13.23;1.95;;;;;;;;;;5033336;28;20037;-69
2023/03/25 02:55:46;;;;;;;8.60;2.08;;;;;;;;;;5032955;28;20026;-70
2023/03/25 02:58:13;;;;;;;8.80;2.20;;;;;;;;;;5032989;28;20033;-70
2023/03/25 03:00:40;;;;;;;13.25;2.17;;;;;;;;;;5031702;28;20065;-70
2023/03/25 03:03:07;;;;;;;8.57;1.98;;;;;;;;;;5032969;28;20034;-70
2023/03/25 03:05:33;;;;;;;7.05;1.77;;;;;;;;;;5032992;28;20041;-70
2023/03/25 03:07:59;;;;;;;9.20;2.30;;;;;;;;;;5033294;28;20036;-70
2023/03/25 03:10:29;;;;;;;12.15;2.42;;;;;;;;;;5032689;28;20028;-69
2023/03/25 03:12:58;;;;;;;8.43;1.85;;;;;;;;;;5032763;28;20049;-70
2023/03/25 03:15:36;;;;;;;11.30;3.20;;;;;;;;;;5033047;28;20025;-70
2023/03/25 03:18:33;;;;;;;11.68;1.88;;;;;;;;;;5032874;28;20026;-70
2023/03/25 03:21:05;;;;;;;9.75;2.08;;;;;;;;;;4977179;28;20027;-70
2023/03/25 03:23:35;;;;;;;11.00;2.25;;;;;;;;;;4973755;28;20031;-70
2023/03/25 03:26:03;;;;;;;10.27;2.03;;;;;;;;;;4973546;28;20513;-70
2023/03/25 03:28:33;;;;;;;11.65;2.33;;;;;;;;;;4973401;28;20058;-70
2023/03/25 03:31:05;;;;;;;9.23;1.60;;;;;;;;;;4973542;28;20181;-70
2023/03/25 03:33:37;;;;;;;16.63;2.60;;;;;;;;;;4974051;28;20034;-70
2023/03/25 03:36:08;;;;;;;16.83;3.45;;;;;;;;;;4973802;28;20085;-70
2023/03/25 03:38:38;;;;;;;13.95;3.50;;;;;;;;;;4973938;28;20042;-70
2023/03/25 03:41:06;;;;;;;14.27;3.50;;;;;;;;;;4973239;28;20515;-70
2023/03/25 03:43:32;;;;;;;14.90;2.65;;;;;;;;;;4973438;28;20042;-70
2023/03/25 03:46:01;;;;;;;12.25;3.28;;;;;;;;;;4973449;28;20106;-70
2023/03/25 03:48:30;;;;;;;16.02;3.15;;;;;;;;;;4972506;28;20030;-70
2023/03/25 03:51:01;;;;;;;16.73;3.30;;;;;;;;;;4973331;28;20039;-70
2023/03/25 03:53:32;;;;;;;14.60;3.27;;;;;;;;;;4973554;28;20402;-70
2023/03/25 03:56:00;;;;;;;;;;;;;;;;;;4973429;28;20023;-70
2023/03/25 03:58:36;;;;;;;13.15;2.67;;;;;;;;;;5022557;28;19905;-70
2023/03/25 04:01:08;;;;;;;15.30;2.90;;;;;;;;;;5054119;28;20055;-70
2023/03/25 04:03:41;;;;;;;9.45;1.98;;;;;;;;;;5053853;28;20043;-70
2023/03/25 04:06:29;;;;;;;14.43;2.72;;;;;;;;;;5054277;28;20036;-70
2023/03/25 04:09:04;;;;;;;9.15;2.13;;;;;;;;;;5053722;28;20477;-70
2023/03/25 04:11:35;;;;;;;8.15;2.13;;;;;;;;;;5054027;28;20025;-70
2023/03/25 04:14:02;;;;;;;11.55;1.88;;;;;;;;;;5053737;28;20017;-70
2023/03/25 04:16:31;;;;;;;10.63;2.13;;;;;;;;;;5053824;28;20037;-70
2023/03/25 04:18:57;;;;;;;13.70;2.20;;;;;;;;;;5053728;28;20378;-70
2023/03/25 04:21:24;;;;;;;11.23;2.53;;;;;;;;;;5053749;28;20023;-70
2023/03/25 04:23:51;;;;;;;19.50;2.42;;;;;;;;;;5053255;28;20408;-70
2023/03/25 04:26:18;;;;;;;9.82;2.25;;;;;;;;;;5053486;28;20031;-70
2023/03/25 04:28:44;;;;;;;9.52;2.15;;;;;;;;;;5053273;28;20045;-70
2023/03/25 04:31:14;;;;;;;15.85;2.35;;;;;;;;;;5053527;28;20493;-70
2023/03/25 04:33:49;;;;;;;16.65;2.60;;;;;;;;;;5053690;28;20025;-70
2023/03/25 04:36:15;;;;;;;13.38;2.22;;;;;;;;;;5053275;28;20024;-70
2023/03/25 04:38:44;;;;;;;11.98;2.25;;;;;;;;;;5053405;28;20032;-70
2023/03/25 04:41:11;;;;;;;10.90;2.25;;;;;;;;;;5053412;28;20047;-69
2023/03/25 04:43:44;;;;;;;16.23;2.38;;;;;;;;;;5053118;28;20392;-70
2023/03/25 04:46:13;;;;;;;14.43;2.80;;;;;;;;;;5053174;28;20444;-70
2023/03/25 04:48:43;;;;;;;18.98;3.00;;;;;;;;;;5053259;28;20017;-70
2023/03/25 04:51:11;;;;;;;11.85;2.55;;;;;;;;;;5053130;28;20035;-70
2023/03/25 04:53:38;;;;;;;11.48;2.22;;;;;;;;;;5052829;28;20035;-70
2023/03/25 04:56:05;;;;;;;15.93;2.45;;;;;;;;;;5053269;28;20017;-70
2023/03/25 04:58:32;;;;;;;19.08;2.75;;;;;;;;;;5052459;28;20754;-70
2023/03/25 05:01:10;;;;;;;16.05;2.15;;;;;;;;;;5053129;28;20035;-70
2023/03/25 05:03:38;;;;;;;13.63;3.05;;;;;;;;;;5052821;28;20090;-70
2023/03/25 05:06:06;;;;;;;9.35;1.83;;;;;;;;;;5052863;28;20021;-70
2023/03/25 05:08:33;;;;;;;12.30;2.10;;;;;;;;;;5052404;28;20021;-70
2023/03/25 05:10:59;;;;;;;16.00;2.75;;;;;;;;;;5052645;28;20078;-70
2023/03/25 05:13:25;;;;;;;12.63;2.05;;;;;;;;;;5052740;28;20017;-70
2023/03/25 05:15:52;;;;;;;17.35;2.70;;;;;;;;;;5052534;28;20025;-70
2023/03/25 05:18:18;;;;;;;12.32;1.88;;;;;;;;;;5052593;28;20366;-70
2023/03/25 05:20:45;;;;;;;12.02;2.47;;;;;;;;;;5052664;28;20054;-70
2023/03/25 05:23:16;;;;;;;14.30;2.38;;;;;;;;;;5052604;28;20037;-70
2023/03/25 05:25:46;;;;;;;16.33;2.53;;;;;;;;;;5052751;28;20037;-70
2023/03/25 05:28:13;;;;;;;13.98;2.30;;;;;;;;;;5052345;28;20049;-70
2023/03/25 05:30:40;;;;;;;16.55;2.20;;;;;;;;;;5051234;28;20043;-69
2023/03/25 05:33:09;;;;;;;16.02;2.42;;;;;;;;;;5052212;28;20029;-70
2023/03/25 05:35:36;;;;;;;14.25;2.08;;;;;;;;;;5052305;28;20025;-70
2023/03/25 05:38:03;;;;;;;12.77;2.22;;;;;;;;;;5052304;28;20039;-70
2023/03/25 05:40:29;;;;;;;13.75;2.45;;;;;;;;;;5052113;28;20028;-70
2023/03/25 05:42:55;;;;;;;14.73;1.88;;;;;;;;;;5052224;28;20021;-69
2023/03/25 05:45:22;;;;;;;14.95;2.40;;;;;;;;;;5051006;28;20451;-70
2023/03/25 05:47:48;;;;;;;12.35;2.72;;;;;;;;;;5052220;28;20020;-69
2023/03/25 05:50:15;;;;;;;11.70;2.05;;;;;;;;;;5051875;28;20519;-70
2023/03/25 05:52:42;;;;;;;16.45;2.50;;;;;;;;;;5051898;28;20035;-70
2023/03/25 05:55:14;;;;;;;11.75;2.20;;;;;;;;;;5050728;28;20428;-69
2023/03/25 05:57:40;;;;;;;14.10;2.78;;;;;;;;;;5051963;28;20043;-70
2023/03/25 06:00:07;;;;;;;16.63;2.97;;;;;;;;;;5051993;28;20013;-70
2023/03/25 06:02:38;;;;;;;14.25;2.03;;;;;;;;;;5051961;28;20539;-70
2023/03/25 06:05:06;;;;;;;13.23;2.10;;;;;;;;;;5051639;28;20035;-70
2023/03/25 06:07:32;;;;;;;11.32;2.33;;;;;;;;;;5051869;28;20021;-70
2023/03/25 06:09:58;;;;;;;9.38;2.17;;;;;;;;;;5052134;28;20029;-70
2023/03/25 06:12:26;;;;;;;19.98;2.85;;;;;;;;;;5055981;28;20016;-70
2023/03/25 06:14:53;;;;;;;12.57;2.55;;;;;;;;;;5056171;28;20025;-70
2023/03/25 06:17:23;;;;;;;15.45;3.80;;;;;;;;;;5055006;28;20033;-70
2023/03/25 06:19:49;;;;;;;19.85;4.38;;;;;;;;;;5055928;28;20029;-70
2023/03/25 06:22:16;;;;;;;17.17;2.72;;;;;;;;;;5056114;28;20024;-70
2023/03/25 06:24:42;;;;;;;15.20;2.70;;;;;;;;;;5055713;28;20037;-70
2023/03/25 06:27:13;;;;;;;11.93;2.47;;;;;;;;;;5055805;28;20013;-70
2023/03/25 06:29:42;;;;;;;18.80;3.58;;;;;;;;;;5055743;28;20025;-70
2023/03/25 06:32:09;;;;;;;17.02;2.88;;;;;;;;;;5055659;28;20405;-70
2023/03/25 06:34:36;;;;;;;10.90;2.10;;;;;;;;;;5055501;28;20499;-70
2023/03/25 06:37:02;;;;;;;16.55;2.45;;;;;;;;;;5055526;28;20022;-70
2023/03/25 06:39:30;;;;;;;18.30;2.60;;;;;;;;;;5055812;28;20028;-70
2023/03/25 06:41:57;;;;;;;12.15;2.35;;;;;;;;;;5055540;28;20033;-70
2023/03/25 06:44:23;;;;;;;11.98;2.50;;;;;;;;;;5055479;28;20534;-70
2023/03/25 06:46:49;;;;;;;15.50;2.45;;;;;;;;;;5055598;28;20021;-70
2023/03/25 06:49:16;;;;;;;12.50;2.30;;;;;;;;;;5055143;28;20367;-69
2023/03/25 06:51:42;;;;;;;14.40;2.25;;;;;;;;;;5055238;28;20024;-70
2023/03/25 06:54:09;;;;;;;17.48;3.17;;;;;;;;;;5055793;28;20037;-69
2023/03/25 06:56:35;;;;;;;14.45;2.67;;;;;;;;;;5055349;28;20035;-70
2023/03/25 06:59:01;;;;;;;17.52;2.97;;;;;;;;;;5055319;28;20033;-70
2023/03/25 07:01:28;;;;;;;11.23;2.30;;;;;;;;;;5055347;28;20029;-70
2023/03/25 07:03:54;;;;;;;13.70;2.50;;;;;;;;;;5055036;28;20036;-70
2023/03/25 07:06:22;;;;;;;11.27;2.55;;;;;;;;;;5055352;28;20105;-70
2023/03/25 07:08:48;;;;;;;10.68;2.75;;;;;;;;;;5055519;28;20033;-69
2023/03/25 07:11:16;;;;;;;15.07;3.63;;;;;;;;;;5055320;28;20090;-70
2023/03/25 07:13:42;;;;;;;17.50;3.10;;;;;;;;;;5054888;28;20027;-70
2023/03/25 07:16:10;;;;;;;12.68;2.80;;;;;;;;;;5055050;28;20024;-69
2023/03/25 07:18:36;;;;;;;12.20;2.65;;;;;;;;;;5054644;28;20025;-70
2023/03/25 07:21:03;;;;;;;10.63;2.78;;;;;;;;;;5054698;28;20043;-70
2023/03/25 07:23:29;;;;;;;17.10;2.85;;;;;;;;;;5054720;28;20025;-70
2023/03/25 07:25:56;;;;;;;12.07;2.28;;;;;;;;;;5054887;28;20029;-70
2023/03/25 07:28:23;;;;;;;10.63;2.53;;;;;;;;;;5054436;28;20444;-69
2023/03/25 07:30:49;;;;;;;16.52;2.33;;;;;;;;;;5054779;28;20025;-70
2023/03/25 07:33:15;;;;;;;10.90;2.28;;;;;;;;;;5054410;28;20025;-70
2023/03/25 07:35:42;;;;;;;11.07;2.00;;;;;;;;;;5054553;28;20025;-70
2023/03/25 07:38:08;;;;;;;9.02;2.28;;;;;;;;;;5054502;28;20486;-70
2023/03/25 07:40:35;;;;;;;8.73;2.03;;;;;;;;;;5054440;28;20021;-70
2023/03/25 07:43:01;;;;;;;13.18;2.30;;;;;;;;;;5054302;28;20035;-70
2023/03/25 07:45:27;;;;;;;13.35;2.13;;;;;;;;;;5054408;28;20033;-70
2023/03/25 07:47:54;;;;;;;11.80;2.45;;;;;;;;;;5053719;28;20645;-70
2023/03/25 07:50:21;;;;;;;8.98;2.13;;;;;;;;;;5054177;28;20053;-70
2023/03/25 07:52:47;;;;;;;8.35;2.45;;;;;;;;;;5054314;28;20435;-70
2023/03/25 07:55:15;;;;;;;13.32;2.38;;;;;;;;;;5054128;28;20037;-70
2023/03/25 07:57:42;;;;;;;8.65;2.35;;;;;;;;;;5054363;28;20027;-70
2023/03/25 08:00:10;;;;;;;7.85;2.03;;;;;;;;;;5054145;28;20422;-69
2023/03/25 08:02:36;;;;;;;8.60;2.40;;;;;;;;;;5053813;28;20436;-70
2023/03/25 08:05:04;;;;;;;7.07;2.53;;;;;;;;;;5053920;28;20035;-71
2023/03/25 08:07:31;;;;;;;9.40;1.92;;;;;;;;;;5054068;28;20025;-71
2023/03/25 08:09:57;;;;;;;7.80;2.17;;;;;;;;;;5053989;28;20029;-70
2023/03/25 08:12:23;;;;;;;8.23;1.77;;;;;;;;;;5053703;28;20017;-70
2023/03/25 08:14:50;;;;;;;10.98;2.08;;;;;;;;;;5053565;28;20033;-70
2023/03/25 08:17:16;;;;;;;11.02;2.38;;;;;;;;;;5053777;28;20029;-70
2023/03/25 08:19:42;;;;;;;11.02;2.65;;;;;;;;;;5053793;28;20033;-69
2023/03/25 08:22:09;;;;;;;5.28;1.75;;;;;;;;;;5053786;28;20027;-68
2023/03/25 08:24:36;;;;;;;8.00;2.10;;;;;;;;;;5053503;28;20029;-67
2023/03/25 08:27:03;;;;;;;7.63;2.03;;;;;;;;;;5053465;28;20018;-68
2023/03/25 08:29:33;;;;;;;8.82;1.90;;;;;;;;;;5033433;28;20422;-68
2023/03/25 08:32:00;;;;;;;6.43;1.77;;;;;;;;;;5033792;28;20390;-68
2023/03/25 08:34:26;;;;;;;7.30;1.90;;;;;;;;;;5033020;28;20041;-70
2023/03/25 08:36:52;;;;;;;9.80;2.00;;;;;;;;;;5033420;28;20018;-70
2023/03/25 08:39:20;;;;;;;7.07;1.75;;;;;;;;;;5033730;28;20018;-70
2023/03/25 08:41:47;;;;;;;7.82;2.00;;;;;;;;;;5033297;28;20036;-70
2023/03/25 08:44:13;;;;;;;7.43;1.85;;;;;;;;;;5033217;28;20044;-70
2023/03/25 08:46:39;;;;;;;8.75;2.03;;;;;;;;;;5033652;28;20036;-70
2023/03/25 08:49:06;;;;;;;7.65;2.38;;;;;;;;;;5033245;28;20025;-70
2023/03/25 08:51:32;;;;;;;6.05;1.48;;;;;;;;;;5032073;28;20381;-69
2023/03/25 08:53:59;;;;;;;10.82;1.90;;;;;;;;;;5033280;28;20028;-70
2023/03/25 08:56:26;;;;;;;7.38;1.80;;;;;;;;;;5033045;28;20383;-70
2023/03/25 08:58:52;;;;;;;5.18;1.70;;;;;;;;;;5032765;28;20028;-70
2023/03/25 09:01:20;;;;;;;5.07;1.42;;;;;;;;;;5033345;28;20023;-70
2023/03/25 09:03:47;;;;;;;6.35;1.88;;;;;;;;;;5032752;28;20048;-70
2023/03/25 09:06:13;;;;;;;5.38;1.48;;;;;;;;;;5032862;28;20032;-69
2023/03/25 09:08:39;;;;;;;9.70;1.90;;;;;;;;;;5032932;28;20393;-70
2023/03/25 09:11:06;;;;;;;4.45;1.50;;;;;;;;;;5032872;28;20031;-70
2023/03/25 09:13:32;;;;;;;7.15;1.98;;;;;;;;;;5032423;28;20025;-70
2023/03/25 09:15:58;;;;;;;8.57;1.95;;;;;;;;;;5033008;28;20039;-70
2023/03/25 09:18:25;;;;;;;6.78;1.92;;;;;;;;;;5032689;28;20486;-70
2023/03/25 09:20:51;;;;;;;7.70;1.80;;;;;;;;;;5032695;28;20036;-70
2023/03/25 09:23:17;;;;;;;7.20;1.95;;;;;;;;;;5032646;28;20037;-69
2023/03/25 09:25:45;;;;;;;5.55;1.88;;;;;;;;;;5032489;28;20532;-70
2023/03/25 09:28:11;;;;;;;9.38;2.10;;;;;;;;;;5041395;28;20037;-69
2023/03/25 09:30:37;;;;;;;7.35;1.98;;;;;;;;;;5052757;28;20025;-70
2023/03/25 09:33:04;;;;;;;6.25;1.45;;;;;;;;;;5052224;28;20021;-69
2023/03/25 09:35:31;;;;;;;7.22;2.17;;;;;;;;;;5052352;28;20033;-69
2023/03/25 09:37:57;;;;;;;8.40;1.80;;;;;;;;;;5052254;28;20024;-70
2023/03/25 09:40:23;;;;;;;5.70;1.60;;;;;;;;;;5052375;28;20025;-69
2023/03/25 09:42:59;;;;;;;6.18;1.73;;;;;;;;;;5052156;28;20070;-69
2023/03/25 09:45:30;;;;;;;5.32;1.90;;;;;;;;;;5051560;28;20037;-70
2023/03/25 09:48:15;;;;;;;6.90;2.05;;;;;;;;;;5052360;28;20508;-69
2023/03/25 09:50:43;;;;;;;6.35;1.73;;;;;;;;;;5052070;28;20048;-70
2023/03/25 09:53:10;;;;;;;4.07;1.25;;;;;;;;;;5051965;28;20033;-69
2023/03/25 09:55:39;;;;;;;5.15;1.80;;;;;;;;;;5051941;28;20021;-69
2023/03/25 09:58:23;;;;;;;5.18;1.70;;;;;;;;;;5052365;28;20027;-69
2023/03/25 10:00:53;;;;;;;8.85;1.60;;;;;;;;;;5051811;28;20024;-69
2023/03/25 10:03:32;;;;;;;7.03;1.77;;;;;;;;;;5051993;28;20039;-69
2023/03/25 10:06:02;;;;;;;7.15;1.73;;;;;;;;;;5051840;28;20280;-70
2023/03/25 10:08:58;;;;;;;6.30;1.52;;;;;;;;;;5051977;28;20044;-69
2023/03/25 10:11:33;;;;;;;4.45;1.50;;;;;;;;;;5047020;28;20037;-70
2023/03/25 10:14:02;;;;;;;7.03;1.73;;;;;;;;;;5052223;28;20035;-70
2023/03/25 10:16:35;;;;;;;5.10;1.60;;;;;;;;;;5051863;28;20027;-70
2023/03/25 10:19:13;;;;;;;4.35;1.55;;;;;;;;;;5052041;28;20041;-71
2023/03/25 10:21:58;;;;;;;4.90;1.50;;;;;;;;;;5051745;28;20025;-70
2023/03/25 10:24:26;;;;;;;4.03;1.38;;;;;;;;;;5051714;28;20051;-70
2023/03/25 10:26:55;;;;;;;5.15;1.30;;;;;;;;;;5051469;28;20013;-70
2023/03/25 10:29:25;;;;;;;4.32;1.52;;;;;;;;;;5051628;28;20531;-68
2023/03/25 10:31:53;;;;;;;3.75;1.35;;;;;;;;;;5051638;28;20384;-68
2023/03/25 10:34:23;;;;;;;5.20;1.60;;;;;;;;;;5051634;28;20474;-70
2023/03/25 10:36:57;;;;;;;5.65;1.67;;;;;;;;;;5050758;28;20031;-70
2023/03/25 10:39:24;;;;;;;4.20;1.63;;;;;;;;;;5051647;28;20033;-68
2023/03/25 10:41:55;;;;;;;6.32;1.48;;;;;;;;;;5051690;28;20035;-70
2023/03/25 10:44:22;;;;;;;4.95;1.50;;;;;;;;;;5051479;28;20029;-70
2023/03/25 10:47:12;;;;;;;4.97;1.45;;;;;;;;;;5051924;28;20031;-70
2023/03/25 10:49:40;;;;;;;4.50;1.60;;;;;;;;;;5048560;28;20063;-69
2023/03/25 10:52:07;;;;;;;7.03;1.60;;;;;;;;;;5051579;28;20103;-70
2023/03/25 10:54:35;;;;;;;5.13;1.50;;;;;;;;;;5051273;28;20431;-70
2023/03/25 10:57:03;;;;;;;4.60;1.60;;;;;;;;;;5053320;28;20017;-70
2023/03/25 10:59:34;;;;;;;6.10;1.70;;;;;;;;;;5055286;28;20032;-70
2023/03/25 11:02:03;;;;;;;5.07;1.60;;;;;;;;;;5055340;28;20029;-70
2023/03/25 11:04:36;;;;;;;4.65;1.60;;;;;;;;;;5055018;28;20033;-70
2023/03/25 11:07:07;;;;;;;5.13;1.30;;;;;;;;;;5054939;28;20017;-70
2023/03/25 11:09:35;;;;;;;3.17;1.17;;;;;;;;;;5054795;28;20029;-70
2023/03/25 11:12:05;;;;;;;5.05;1.60;;;;;;;;;;5055295;28;20025;-69
2023/03/25 11:14:35;;;;;;;5.80;1.48;;;;;;;;;;5055080;28;20021;-70
2023/03/25 11:17:04;;;;;;;5.57;1.58;;;;;;;;;;5054895;28;20021;-69
2023/03/25 11:19:40;;;;;;;4.68;1.30;;;;;;;;;;5055063;28;20021;-69
2023/03/25 11:22:15;;;;;;;7.78;1.50;;;;;;;;;;5054746;28;20025;-69
2023/03/25 11:24:43;;;;;;;5.72;1.33;;;;;;;;;;5054562;28;20059;-69
2023/03/25 11:27:10;;;;;;;7.03;1.30;;;;;;;;;;5054573;28;20043;-69
2023/03/25 11:29:37;;;;;;;6.80;1.60;;;;;;;;;;5054721;28;20061;-69
2023/03/25 11:32:07;;;;;;;5.07;1.25;;;;;;;;;;5054696;28;20503;-69
2023/03/25 11:34:40;;;;;;;;;;;;;;;;;;5054786;28;20029;-69
2023/03/25 11:37:21;;;;;;;6.20;1.52;;;;;;;;;;5054480;28;19922;-69
2023/03/25 11:39:54;;;;;;;6.03;1.38;;;;;;;;;;5054166;28;20520;-69
2023/03/25 11:42:21;;;;;;;5.07;1.30;;;;;;;;;;5054387;28;20436;-69
2023/03/25 11:44:54;;;;;;;4.35;1.60;;;;;;;;;;5054322;28;20039;-69
2023/03/25 11:47:24;;;;;;;7.07;1.70;;;;;;;;;;5054788;28;20035;-69
2023/03/25 11:49:51;;;;;;;7.05;1.48;;;;;;;;;;5054273;28;20033;-69
2023/03/25 11:52:20;;;;;;;3.88;1.50;;;;;;;;;;5054266;28;20033;-69
2023/03/25 11:54:47;;;;;;;6.20;1.20;;;;;;;;;;5054532;28;20101;-69
2023/03/25 11:57:22;;;;;;;5.60;1.20;;;;;;;;;;5054195;28;20033;-69
2023/03/25 11:59:49;;;;;;;6.00;1.58;;;;;;;;;;5054153;28;20033;-69
2023/03/25 12:02:23;;;;;;;4.10;1.35;;;;;;;;;;5053957;28;20017;-69
2023/03/25 12:05:12;;;;;;;3.38;1.20;;;;;;;;;;5053957;28;20044;-69
2023/03/25 12:07:49;;;;;;;4.13;1.08;;;;;;;;;;5050489;28;20037;-69
2023/03/25 12:10:16;;;;;;;4.78;1.38;;;;;;;;;;5053796;28;20389;-70
2023/03/25 12:12:45;;;;;;;3.13;1.35;;;;;;;;;;5053873;28;20066;-70
2023/03/25 12:15:17;;;;;;;3.30;1.20;;;;;;;;;;5053658;28;20516;-69
2023/03/25 12:18:04;;;;;;;6.55;1.52;;;;;;;;;;5053599;28;20017;-70
2023/03/25 12:20:50;;;;;;;4.80;1.30;;;;;;;;;;5031580;28;20069;-70
2023/03/25 12:23:36;;;;;;;2.75;1.20;;;;;;;;;;5031617;28;20029;-70
2023/03/25 12:26:09;;;;;;;3.97;1.40;;;;;;;;;;5031607;28;20449;-70
2023/03/25 12:29:02;;;;;;;4.90;1.23;;;;;;;;;;5031231;28;20545;-69
2023/03/25 12:31:34;;;;;;;5.70;1.33;;;;;;;;;;5014967;28;20091;-69
2023/03/25 12:34:19;;;;;;;4.55;1.13;;;;;;;;;;5031474;28;20037;-69
2023/03/25 12:36:58;;;;;;;3.90;1.10;;;;;;;;;;5031014;28;20043;-69
2023/03/25 12:39:33;;;;;;;5.15;1.30;;;;;;;;;;5031140;28;20042;-70
2023/03/25 12:42:06;;;;;;;6.35;1.35;;;;;;;;;;5031503;28;20045;-69
2023/03/25 12:44:51;;;;;;;9.57;1.30;;;;;;;;;;5031088;28;20050;-69
2023/03/25 12:47:49;;;;;;;5.82;1.33;;;;;;;;;;5031217;28;20034;-70
2023/03/25 12:50:27;;;;;;;3.80;1.55;;;;;;;;;;4971907;28;20061;-69
2023/03/25 12:52:57;;;;;;;4.20;1.27;;;;;;;;;;4972175;28;20045;-69
2023/03/25 12:55:28;;;;;;;2.83;1.15;;;;;;;;;;4972200;28;20022;-69
2023/03/25 12:58:07;;;;;;;4.32;1.20;;;;;;;;;;4972268;28;20434;-70
2023/03/25 13:00:46;;;;;;;3.05;1.33;;;;;;;;;;4971990;28;20039;-69
2023/03/25 13:03:25;;;;;;;3.83;1.23;;;;;;;;;;4971899;28;20035;-70
2023/03/25 13:06:00;;;;;;;3.90;1.20;;;;;;;;;;4971987;28;20046;-70
2023/03/25 13:08:47;;;;;;;4.90;1.40;;;;;;;;;;4971894;28;20033;-69
2023/03/25 13:11:14;;;;;;;5.35;1.40;;;;;;;;;;4972056;28;20486;-70
2023/03/25 13:13:43;;;;;;;3.35;1.10;;;;;;;;;;4971780;28;20043;-69
2023/03/25 13:16:13;;;;;;;2.20;1.00;;;;;;;;;;4971883;28;20423;-70
2023/03/25 13:18:40;;;;;;;;;;;;;;;;;;4972195;28;20034;-70
2023/03/25 13:21:10;;;;;;;2.78;1.13;;;;;;;;;;4971787;28;19906;-70
2023/03/25 13:23:37;;;;;;;4.95;1.33;;;;;;;;;;4971581;28;20486;-70
2023/03/25 13:26:05;;;;;;;3.70;1.30;;;;;;;;;;5007732;28;20033;-70
2023/03/25 13:28:37;;;;;;;4.43;1.30;;;;;;;;;;5032415;28;20068;-70
2023/03/25 13:31:10;;;;;;;4.18;1.40;;;;;;;;;;5032410;28;20432;-70
2023/03/25 13:33:41;;;;;;;3.92;1.33;;;;;;;;;;5032393;28;20028;-70
2023/03/25 13:36:14;;;;;;;4.63;1.35;;;;;;;;;;5032387;28;20029;-70
2023/03/25 13:38:48;;;;;;;4.57;1.52;;;;;;;;;;5032550;28;20021;-69
2023/03/25 13:41:17;;;;;;;3.05;1.23;;;;;;;;;;5032648;28;20028;-69
2023/03/25 13:43:55;;;;;;;5.30;1.63;;;;;;;;;;5032036;28;20420;-69
2023/03/25 13:46:24;;;;;;;2.85;1.13;;;;;;;;;;5032197;28;20061;-70
2023/03/25 13:48:53;;;;;;;4.82;1.30;;;;;;;;;;5032085;28;20037;-70
2023/03/25 13:51:20;;;;;;;2.58;1.25;;;;;;;;;;5032597;28;20032;-69
2023/03/25 13:53:52;;;;;;;5.47;1.40;;;;;;;;;;5032070;28;20032;-69
2023/03/25 13:56:27;;;;;;;3.88;1.20;;;;;;;;;;5032078;28;20029;-69
2023/03/25 13:58:56;;;;;;;3.40;1.30;;;;;;;;;;5036297;28;20051;-70
2023/03/25 14:01:32;;;;;;;4.82;1.52;;;;;;;;;;5051084;28;20023;-69
2023/03/25 14:04:20;;;;;;;3.60;1.40;;;;;;;;;;5051727;28;20048;-69
2023/03/25 14:06:54;;;;;;;3.25;1.38;;;;;;;;;;5052322;28;20021;-70
2023/03/25 14:09:56;;;;;;;2.75;1.17;;;;;;;;;;5052090;28;20025;-69
2023/03/25 14:12:25;;;;;;;4.45;1.27;;;;;;;;;;5029991;28;20025;-69
2023/03/25 14:15:18;;;;;;;4.25;1.23;;;;;;;;;;5029674;28;20033;-69
2023/03/25 14:17:45;;;;;;;3.90;1.30;;;;;;;;;;5026758;28;20030;-69
2023/03/25 14:20:16;;;;;;;3.38;1.40;;;;;;;;;;5030052;28;20037;-69
2023/03/25 14:22:43;;;;;;;3.30;1.33;;;;;;;;;;5029717;28;20429;-69
2023/03/25 14:25:33;;;;;;;3.55;1.30;;;;;;;;;;5029550;28;20037;-69
2023/03/25 14:28:02;;;;;;;3.45;1.30;;;;;;;;;;5022105;28;20055;-69
2023/03/25 14:30:29;;;;;;;4.43;1.70;;;;;;;;;;5029615;28;20037;-69
2023/03/25 14:32:56;;;;;;;4.47;1.75;;;;;;;;;;5032881;28;20037;-69
2023/03/25 14:35:32;;;;;;;3.10;1.35;;;;;;;;;;5033532;28;20045;-69
2023/03/25 14:38:07;;;;;;;6.57;1.50;;;;;;;;;;5033772;28;20022;-69
2023/03/25 14:40:45;;;;;;;6.32;1.23;;;;;;;;;;5033754;28;20051;-69
2023/03/25 14:43:23;;;;;;;4.63;1.50;;;;;;;;;;5033708;28;20029;-69
2023/03/25 14:46:13;;;;;;;4.47;1.10;;;;;;;;;;5039620;28;20044;-69
2023/03/25 14:48:45;;;;;;;4.05;1.25;;;;;;;;;;5054287;28;20024;-69
2023/03/25 14:51:15;;;;;;;6.15;1.55;;;;;;;;;;5055632;28;20037;-69
2023/03/25 14:53:41;;;;;;;4.78;1.50;;;;;;;;;;5055266;28;20381;-69
2023/03/25 14:56:14;;;;;;;6.25;1.23;;;;;;;;;;5055657;28;20024;-69